LDPL

Pula Airport

Airport
ICAO code
LDPL
IATA Code
PUY
Summary
ICAO Region
EUR
ICAO Territory
Location

Pula, Istria

Serving
Pula
Elevation
274 ft
Coordinates
44° 53' 44" N , 13° 55' 8" E
KCC
Cfa
Metar
Observation
LDPL 082000Z 07012KT CAVOK 26/14 Q1016 NOSIG
Station
Pula Aerodrome
Date/Time
2022-08-08 20:00:00
Wind direction
70°
Wind speed
12 kts
Lowest cloud amount
clouds and visibility OK
Temperature
26°C
Dew point
14°C
Humidity
47%
QNH
1016 hPa
Weather condition
n/a

Pula Airport is the international airport serving Pula, Croatia

Climatology

Humid subtropical climate (Köppen climate classification Cfa)

Runways

Designator Length Width Surface Rops
9/27 2950 45 ASP Yes/Yes

Airport map

Aerial View

SKYbrary Partners:

Safety knowledge contributed by: